Kezdőlap
METAR-TAF:

METAR-TAF

Repülőterek :

Jaffrey, New Hampshire, Amerikai Egyesült Államok

földrajzi szélesség: 42-48-21N, földrajzi hosszúság: 072-00-02W, magasság: 317 m

Jelenlegi meteorológiai megfigyelések

A jelentés 33 perccel ezelõtt készült, 19:52 UTC
Különbözõ irányokból fújó szél 6 kt
Hőmérséklet 4°C
Páratartalom 38%
Légköri nyomás 1018 hPa
Látótávolság: 16.1 km
Derült ég

METAR: KAFN 221952Z AUTO VRB06KT 10SM CLR 04/M09 A3005 RMK AO2 SLP193 T00391089

Idő: 15:25 (20:25 UTC)


TAF: hiányzik

Meteorológiai megfigyelések és előrejelzések több, mint 4000 repülőtéren (METAR és TAF jelentéseket).

A térképen piros és sárga pontok jelzik az elérhető meteorológiai állomásokat.

Mozgassa az egeret a pont fölött, hogy megjelenjen az állomás neve.

Azután kattintson az időjárási megfigyelések és előrejelzések megtekintéséhez.

A térkép megváltoztatása: kattintson a fekete keresztel jelölt zöld gombra ráközelítéshez, a vonallal jelölt zöld gombra távolításhoz, vagy a zöld nyilakra a szomszédos térképek eléréséhez.


METAR-TAF: